sensor_id;sensor_type;location;lat;lon;timestamp;P1;durP1;ratioP1;P2;durP2;ratioP2
68744;SDS011;73143;45.456;11.064;2024-01-15T00:00:22;90.10;;;48.50;;
68744;SDS011;73143;45.456;11.064;2024-01-15T00:02:59;86.20;;;47.90;;
68744;SDS011;73143;45.456;11.064;2024-01-15T00:05:37;85.90;;;45.90;;
68744;SDS011;73143;45.456;11.064;2024-01-15T00:08:14;86.40;;;48.10;;
68744;SDS011;73143;45.456;11.064;2024-01-15T00:10:52;87.00;;;47.70;;
68744;SDS011;73143;45.456;11.064;2024-01-15T00:13:31;75.10;;;42.70;;
68744;SDS011;73143;45.456;11.064;2024-01-15T00:16:09;84.20;;;47.40;;
68744;SDS011;73143;45.456;11.064;2024-01-15T00:18:46;87.60;;;50.30;;
68744;SDS011;73143;45.456;11.064;2024-01-15T00:21:24;88.30;;;47.90;;
68744;SDS011;73143;45.456;11.064;2024-01-15T00:24:02;78.70;;;44.10;;
68744;SDS011;73143;45.456;11.064;2024-01-15T00:26:41;83.30;;;47.80;;
68744;SDS011;73143;45.456;11.064;2024-01-15T00:29:19;86.90;;;49.30;;
68744;SDS011;73143;45.456;11.064;2024-01-15T00:31:56;82.10;;;47.50;;
68744;SDS011;73143;45.456;11.064;2024-01-15T00:34:33;79.50;;;46.20;;
68744;SDS011;73143;45.456;11.064;2024-01-15T00:37:11;83.60;;;49.10;;
68744;SDS011;73143;45.456;11.064;2024-01-15T00:39:48;83.90;;;48.70;;
68744;SDS011;73143;45.456;11.064;2024-01-15T00:42:26;93.20;;;51.40;;
68744;SDS011;73143;45.456;11.064;2024-01-15T00:45:06;87.00;;;48.60;;
68744;SDS011;73143;45.456;11.064;2024-01-15T00:47:45;85.90;;;49.10;;
68744;SDS011;73143;45.456;11.064;2024-01-15T00:50:23;86.30;;;46.70;;
68744;SDS011;73143;45.456;11.064;2024-01-15T00:53:01;91.60;;;49.90;;
68744;SDS011;73143;45.456;11.064;2024-01-15T00:55:39;78.30;;;43.60;;
68744;SDS011;73143;45.456;11.064;2024-01-15T00:58:18;74.90;;;44.00;;
68744;SDS011;73143;45.456;11.064;2024-01-15T01:00:56;85.30;;;46.50;;
68744;SDS011;73143;45.456;11.064;2024-01-15T01:03:34;92.60;;;51.30;;
68744;SDS011;73143;45.456;11.064;2024-01-15T01:06:13;90.20;;;49.00;;
68744;SDS011;73143;45.456;11.064;2024-01-15T01:08:51;78.20;;;44.90;;
68744;SDS011;73143;45.456;11.064;2024-01-15T01:11:28;82.50;;;47.00;;
68744;SDS011;73143;45.456;11.064;2024-01-15T01:14:06;95.60;;;50.70;;
68744;SDS011;73143;45.456;11.064;2024-01-15T01:16:45;84.30;;;47.20;;
68744;SDS011;73143;45.456;11.064;2024-01-15T01:19:23;96.20;;;50.10;;
68744;SDS011;73143;45.456;11.064;2024-01-15T01:22:00;92.30;;;48.90;;
68744;SDS011;73143;45.456;11.064;2024-01-15T01:24:38;92.70;;;50.40;;
68744;SDS011;73143;45.456;11.064;2024-01-15T01:27:14;84.30;;;48.00;;
68744;SDS011;73143;45.456;11.064;2024-01-15T01:29:52;97.00;;;52.20;;
68744;SDS011;73143;45.456;11.064;2024-01-15T01:32:29;82.60;;;45.40;;
68744;SDS011;73143;45.456;11.064;2024-01-15T01:35:09;89.90;;;50.90;;
68744;SDS011;73143;45.456;11.064;2024-01-15T01:37:46;89.00;;;50.10;;
68744;SDS011;73143;45.456;11.064;2024-01-15T01:40:25;85.70;;;48.50;;
68744;SDS011;73143;45.456;11.064;2024-01-15T01:43:03;84.90;;;48.70;;
68744;SDS011;73143;45.456;11.064;2024-01-15T01:45:43;92.80;;;50.30;;
68744;SDS011;73143;45.456;11.064;2024-01-15T01:48:20;86.80;;;47.90;;
68744;SDS011;73143;45.456;11.064;2024-01-15T01:51:00;82.40;;;46.80;;
68744;SDS011;73143;45.456;11.064;2024-01-15T01:53:40;82.90;;;46.80;;
68744;SDS011;73143;45.456;11.064;2024-01-15T01:56:20;82.80;;;46.20;;
68744;SDS011;73143;45.456;11.064;2024-01-15T01:58:58;79.90;;;44.80;;
68744;SDS011;73143;45.456;11.064;2024-01-15T02:01:36;84.80;;;45.80;;
68744;SDS011;73143;45.456;11.064;2024-01-15T02:04:14;79.50;;;44.90;;
68744;SDS011;73143;45.456;11.064;2024-01-15T02:06:52;75.80;;;44.00;;
68744;SDS011;73143;45.456;11.064;2024-01-15T02:09:29;80.90;;;45.30;;
68744;SDS011;73143;45.456;11.064;2024-01-15T02:12:11;76.10;;;43.20;;
68744;SDS011;73143;45.456;11.064;2024-01-15T02:14:51;79.60;;;42.90;;
68744;SDS011;73143;45.456;11.064;2024-01-15T02:17:28;72.90;;;42.60;;
68744;SDS011;73143;45.456;11.064;2024-01-15T02:20:12;78.70;;;43.30;;
68744;SDS011;73143;45.456;11.064;2024-01-15T02:25:40;72.30;;;42.10;;
68744;SDS011;73143;45.456;11.064;2024-01-15T02:28:19;75.30;;;42.40;;
68744;SDS011;73143;45.456;11.064;2024-01-15T02:30:55;72.60;;;41.40;;
68744;SDS011;73143;45.456;11.064;2024-01-15T02:33:33;74.90;;;41.30;;
68744;SDS011;73143;45.456;11.064;2024-01-15T02:36:12;72.80;;;41.00;;
68744;SDS011;73143;45.456;11.064;2024-01-15T02:38:51;68.20;;;40.60;;
68744;SDS011;73143;45.456;11.064;2024-01-15T02:41:27;74.00;;;40.90;;
68744;SDS011;73143;45.456;11.064;2024-01-15T02:44:05;74.50;;;43.40;;
68744;SDS011;73143;45.456;11.064;2024-01-15T02:46:42;74.00;;;42.70;;
68744;SDS011;73143;45.456;11.064;2024-01-15T02:49:20;71.90;;;41.20;;
68744;SDS011;73143;45.456;11.064;2024-01-15T02:51:58;70.10;;;41.50;;
68744;SDS011;73143;45.456;11.064;2024-01-15T02:54:38;68.00;;;40.40;;
68744;SDS011;73143;45.456;11.064;2024-01-15T02:57:16;73.20;;;43.70;;
68744;SDS011;73143;45.456;11.064;2024-01-15T02:59:53;69.00;;;39.40;;
68744;SDS011;73143;45.456;11.064;2024-01-15T03:02:31;71.20;;;38.80;;
68744;SDS011;73143;45.456;11.064;2024-01-15T03:05:20;73.60;;;40.00;;
68744;SDS011;73143;45.456;11.064;2024-01-15T03:07:58;72.40;;;42.00;;
68744;SDS011;73143;45.456;11.064;2024-01-15T03:10:35;72.80;;;40.70;;
68744;SDS011;73143;45.456;11.064;2024-01-15T03:13:12;64.30;;;37.40;;
68744;SDS011;73143;45.456;11.064;2024-01-15T03:15:49;66.10;;;39.10;;
68744;SDS011;73143;45.456;11.064;2024-01-15T03:18:25;70.10;;;39.80;;
68744;SDS011;73143;45.456;11.064;2024-01-15T03:21:04;73.60;;;41.50;;
68744;SDS011;73143;45.456;11.064;2024-01-15T03:23:47;71.90;;;41.70;;
68744;SDS011;73143;45.456;11.064;2024-01-15T03:26:24;76.30;;;41.90;;
68744;SDS011;73143;45.456;11.064;2024-01-15T03:29:02;65.70;;;40.00;;
68744;SDS011;73143;45.456;11.064;2024-01-15T03:31:39;75.20;;;42.50;;
68744;SDS011;73143;45.456;11.064;2024-01-15T03:34:17;73.30;;;40.40;;
68744;SDS011;73143;45.456;11.064;2024-01-15T03:36:55;65.50;;;38.80;;
68744;SDS011;73143;45.456;11.064;2024-01-15T03:39:32;70.50;;;40.20;;
68744;SDS011;73143;45.456;11.064;2024-01-15T03:42:11;67.10;;;39.10;;
68744;SDS011;73143;45.456;11.064;2024-01-15T03:44:48;68.20;;;38.40;;
68744;SDS011;73143;45.456;11.064;2024-01-15T03:47:25;74.30;;;41.40;;
68744;SDS011;73143;45.456;11.064;2024-01-15T03:50:02;75.20;;;43.00;;
68744;SDS011;73143;45.456;11.064;2024-01-15T03:52:41;71.20;;;39.60;;
68744;SDS011;73143;45.456;11.064;2024-01-15T03:55:19;65.20;;;38.40;;
68744;SDS011;73143;45.456;11.064;2024-01-15T03:57:56;64.20;;;36.30;;
68744;SDS011;73143;45.456;11.064;2024-01-15T04:00:34;60.20;;;35.20;;
68744;SDS011;73143;45.456;11.064;2024-01-15T04:03:13;62.60;;;36.20;;
68744;SDS011;73143;45.456;11.064;2024-01-15T04:05:50;61.00;;;34.50;;
68744;SDS011;73143;45.456;11.064;2024-01-15T04:08:29;57.40;;;32.40;;
68744;SDS011;73143;45.456;11.064;2024-01-15T04:11:06;57.00;;;32.60;;
68744;SDS011;73143;45.456;11.064;2024-01-15T04:13:44;57.20;;;33.70;;
68744;SDS011;73143;45.456;11.064;2024-01-15T04:16:21;60.50;;;34.50;;
68744;SDS011;73143;45.456;11.064;2024-01-15T04:18:59;63.00;;;35.30;;
68744;SDS011;73143;45.456;11.064;2024-01-15T04:21:36;68.00;;;37.60;;
68744;SDS011;73143;45.456;11.064;2024-01-15T04:24:14;69.70;;;39.10;;
68744;SDS011;73143;45.456;11.064;2024-01-15T04:26:52;69.40;;;39.10;;
68744;SDS011;73143;45.456;11.064;2024-01-15T04:29:32;71.50;;;39.80;;
68744;SDS011;73143;45.456;11.064;2024-01-15T04:32:12;67.20;;;39.60;;
68744;SDS011;73143;45.456;11.064;2024-01-15T04:34:49;70.30;;;38.00;;
68744;SDS011;73143;45.456;11.064;2024-01-15T04:37:27;61.40;;;35.40;;
68744;SDS011;73143;45.456;11.064;2024-01-15T04:40:07;62.50;;;34.10;;
68744;SDS011;73143;45.456;11.064;2024-01-15T04:42:47;57.00;;;32.10;;
68744;SDS011;73143;45.456;11.064;2024-01-15T04:45:25;57.40;;;31.30;;
68744;SDS011;73143;45.456;11.064;2024-01-15T04:48:02;57.50;;;32.10;;
68744;SDS011;73143;45.456;11.064;2024-01-15T04:50:41;53.80;;;31.90;;
68744;SDS011;73143;45.456;11.064;2024-01-15T04:53:18;50.30;;;29.80;;
68744;SDS011;73143;45.456;11.064;2024-01-15T04:55:54;53.60;;;30.80;;
68744;SDS011;73143;45.456;11.064;2024-01-15T04:58:32;52.50;;;29.50;;
68744;SDS011;73143;45.456;11.064;2024-01-15T05:01:12;58.30;;;31.50;;
68744;SDS011;73143;45.456;11.064;2024-01-15T05:03:49;53.30;;;30.80;;
68744;SDS011;73143;45.456;11.064;2024-01-15T05:06:31;56.70;;;32.00;;
68744;SDS011;73143;45.456;11.064;2024-01-15T05:09:09;55.50;;;32.70;;
68744;SDS011;73143;45.456;11.064;2024-01-15T05:11:47;58.30;;;33.00;;
68744;SDS011;73143;45.456;11.064;2024-01-15T05:14:24;57.60;;;32.40;;
68744;SDS011;73143;45.456;11.064;2024-01-15T05:17:02;56.90;;;32.10;;
68744;SDS011;73143;45.456;11.064;2024-01-15T05:19:42;55.40;;;31.80;;
68744;SDS011;73143;45.456;11.064;2024-01-15T05:22:19;54.60;;;31.10;;
68744;SDS011;73143;45.456;11.064;2024-01-15T05:24:59;57.60;;;32.60;;
68744;SDS011;73143;45.456;11.064;2024-01-15T05:27:36;56.60;;;32.20;;
68744;SDS011;73143;45.456;11.064;2024-01-15T05:30:16;52.80;;;31.20;;
68744;SDS011;73143;45.456;11.064;2024-01-15T05:32:54;57.00;;;31.60;;
68744;SDS011;73143;45.456;11.064;2024-01-15T05:35:32;55.90;;;31.20;;
68744;SDS011;73143;45.456;11.064;2024-01-15T05:38:10;56.30;;;31.70;;
68744;SDS011;73143;45.456;11.064;2024-01-15T05:40:50;57.90;;;33.60;;
68744;SDS011;73143;45.456;11.064;2024-01-15T05:43:27;58.60;;;33.70;;
68744;SDS011;73143;45.456;11.064;2024-01-15T05:46:04;54.40;;;30.20;;
68744;SDS011;73143;45.456;11.064;2024-01-15T05:48:40;47.50;;;28.10;;
68744;SDS011;73143;45.456;11.064;2024-01-15T05:51:17;57.00;;;31.90;;
68744;SDS011;73143;45.456;11.064;2024-01-15T05:53:54;57.90;;;31.90;;
68744;SDS011;73143;45.456;11.064;2024-01-15T05:56:30;51.80;;;29.30;;
68744;SDS011;73143;45.456;11.064;2024-01-15T05:59:08;53.80;;;30.40;;
68744;SDS011;73143;45.456;11.064;2024-01-15T06:01:46;56.30;;;30.70;;
68744;SDS011;73143;45.456;11.064;2024-01-15T06:04:25;50.70;;;29.00;;
68744;SDS011;73143;45.456;11.064;2024-01-15T06:07:03;52.50;;;30.40;;
68744;SDS011;73143;45.456;11.064;2024-01-15T06:09:41;58.00;;;31.20;;
68744;SDS011;73143;45.456;11.064;2024-01-15T06:12:19;45.20;;;27.00;;
68744;SDS011;73143;45.456;11.064;2024-01-15T06:14:58;50.60;;;28.90;;
68744;SDS011;73143;45.456;11.064;2024-01-15T06:17:36;49.30;;;29.20;;
68744;SDS011;73143;45.456;11.064;2024-01-15T06:20:16;50.00;;;29.00;;
68744;SDS011;73143;45.456;11.064;2024-01-15T06:22:54;43.10;;;25.80;;
68744;SDS011;73143;45.456;11.064;2024-01-15T06:25:30;46.50;;;27.90;;
68744;SDS011;73143;45.456;11.064;2024-01-15T06:28:08;44.50;;;26.00;;
68744;SDS011;73143;45.456;11.064;2024-01-15T06:30:47;51.70;;;27.80;;
68744;SDS011;73143;45.456;11.064;2024-01-15T06:33:25;48.20;;;27.80;;
68744;SDS011;73143;45.456;11.064;2024-01-15T06:36:02;48.10;;;26.80;;
68744;SDS011;73143;45.456;11.064;2024-01-15T06:38:43;52.10;;;29.80;;
68744;SDS011;73143;45.456;11.064;2024-01-15T06:41:20;43.40;;;25.30;;
68744;SDS011;73143;45.456;11.064;2024-01-15T06:43:58;43.10;;;25.60;;
68744;SDS011;73143;45.456;11.064;2024-01-15T06:46:37;43.60;;;26.00;;
68744;SDS011;73143;45.456;11.064;2024-01-15T06:49:22;50.50;;;28.00;;
68744;SDS011;73143;45.456;11.064;2024-01-15T06:52:00;50.40;;;27.60;;
68744;SDS011;73143;45.456;11.064;2024-01-15T06:54:38;53.30;;;30.20;;
68744;SDS011;73143;45.456;11.064;2024-01-15T06:57:15;54.10;;;31.10;;
68744;SDS011;73143;45.456;11.064;2024-01-15T06:59:53;52.70;;;30.00;;
68744;SDS011;73143;45.456;11.064;2024-01-15T07:02:30;54.50;;;29.40;;
68744;SDS011;73143;45.456;11.064;2024-01-15T07:05:09;53.20;;;29.90;;
68744;SDS011;73143;45.456;11.064;2024-01-15T07:07:47;52.20;;;28.60;;
68744;SDS011;73143;45.456;11.064;2024-01-15T07:10:25;51.10;;;29.70;;
68744;SDS011;73143;45.456;11.064;2024-01-15T07:13:08;48.50;;;27.60;;
68744;SDS011;73143;45.456;11.064;2024-01-15T07:15:45;48.90;;;28.10;;
68744;SDS011;73143;45.456;11.064;2024-01-15T07:18:23;48.20;;;27.70;;
68744;SDS011;73143;45.456;11.064;2024-01-15T07:21:00;53.00;;;29.60;;
68744;SDS011;73143;45.456;11.064;2024-01-15T07:23:39;48.00;;;27.30;;
68744;SDS011;73143;45.456;11.064;2024-01-15T07:26:16;49.50;;;28.30;;
68744;SDS011;73143;45.456;11.064;2024-01-15T07:28:53;57.00;;;30.60;;
68744;SDS011;73143;45.456;11.064;2024-01-15T07:31:31;49.70;;;30.00;;
68744;SDS011;73143;45.456;11.064;2024-01-15T07:34:08;50.30;;;30.00;;
68744;SDS011;73143;45.456;11.064;2024-01-15T07:36:45;53.00;;;29.90;;
68744;SDS011;73143;45.456;11.064;2024-01-15T07:39:23;54.50;;;31.20;;
68744;SDS011;73143;45.456;11.064;2024-01-15T07:42:03;49.80;;;28.20;;
68744;SDS011;73143;45.456;11.064;2024-01-15T07:44:41;50.60;;;27.90;;
68744;SDS011;73143;45.456;11.064;2024-01-15T07:47:17;49.80;;;28.80;;
68744;SDS011;73143;45.456;11.064;2024-01-15T07:49:55;49.00;;;28.80;;
68744;SDS011;73143;45.456;11.064;2024-01-15T07:52:36;45.90;;;26.30;;
68744;SDS011;73143;45.456;11.064;2024-01-15T07:55:16;49.40;;;27.10;;
68744;SDS011;73143;45.456;11.064;2024-01-15T07:57:53;45.90;;;26.40;;
68744;SDS011;73143;45.456;11.064;2024-01-15T08:00:45;46.80;;;26.90;;
68744;SDS011;73143;45.456;11.064;2024-01-15T08:03:23;47.40;;;26.80;;
68744;SDS011;73143;45.456;11.064;2024-01-15T08:06:02;42.60;;;25.10;;
68744;SDS011;73143;45.456;11.064;2024-01-15T08:08:42;47.00;;;26.60;;
68744;SDS011;73143;45.456;11.064;2024-01-15T08:11:19;48.70;;;27.70;;
68744;SDS011;73143;45.456;11.064;2024-01-15T08:13:56;48.60;;;27.90;;
68744;SDS011;73143;45.456;11.064;2024-01-15T08:16:35;48.30;;;28.60;;
68744;SDS011;73143;45.456;11.064;2024-01-15T08:19:13;50.90;;;29.10;;
68744;SDS011;73143;45.456;11.064;2024-01-15T08:21:53;55.40;;;31.60;;
68744;SDS011;73143;45.456;11.064;2024-01-15T08:24:31;52.50;;;32.00;;
68744;SDS011;73143;45.456;11.064;2024-01-15T08:27:09;54.30;;;31.20;;
68744;SDS011;73143;45.456;11.064;2024-01-15T08:29:46;53.50;;;30.40;;
68744;SDS011;73143;45.456;11.064;2024-01-15T08:32:23;46.80;;;27.80;;
68744;SDS011;73143;45.456;11.064;2024-01-15T08:35:01;48.20;;;28.40;;
68744;SDS011;73143;45.456;11.064;2024-01-15T08:37:41;49.90;;;29.70;;
68744;SDS011;73143;45.456;11.064;2024-01-15T08:40:18;52.70;;;30.00;;
68744;SDS011;73143;45.456;11.064;2024-01-15T08:42:56;56.60;;;30.60;;
68744;SDS011;73143;45.456;11.064;2024-01-15T08:45:34;54.60;;;29.60;;
68744;SDS011;73143;45.456;11.064;2024-01-15T08:48:11;52.90;;;29.30;;
68744;SDS011;73143;45.456;11.064;2024-01-15T08:50:52;49.00;;;28.90;;
68744;SDS011;73143;45.456;11.064;2024-01-15T08:53:28;51.10;;;29.70;;
68744;SDS011;73143;45.456;11.064;2024-01-15T08:56:07;51.50;;;30.10;;
68744;SDS011;73143;45.456;11.064;2024-01-15T08:58:45;55.50;;;30.90;;
68744;SDS011;73143;45.456;11.064;2024-01-15T09:01:23;48.50;;;29.50;;
68744;SDS011;73143;45.456;11.064;2024-01-15T09:04:01;53.60;;;31.10;;
68744;SDS011;73143;45.456;11.064;2024-01-15T09:06:39;51.80;;;30.70;;
68744;SDS011;73143;45.456;11.064;2024-01-15T09:09:15;58.50;;;34.50;;
68744;SDS011;73143;45.456;11.064;2024-01-15T09:11:53;62.70;;;35.50;;
68744;SDS011;73143;45.456;11.064;2024-01-15T09:14:30;75.10;;;41.50;;
68744;SDS011;73143;45.456;11.064;2024-01-15T09:17:09;82.30;;;45.30;;
68744;SDS011;73143;45.456;11.064;2024-01-15T09:19:46;79.20;;;47.30;;
68744;SDS011;73143;45.456;11.064;2024-01-15T09:22:24;72.70;;;42.50;;
68744;SDS011;73143;45.456;11.064;2024-01-15T09:25:02;68.60;;;41.70;;
68744;SDS011;73143;45.456;11.064;2024-01-15T09:27:42;63.10;;;38.30;;
68744;SDS011;73143;45.456;11.064;2024-01-15T09:30:19;64.40;;;37.20;;
68744;SDS011;73143;45.456;11.064;2024-01-15T09:32:56;58.20;;;34.10;;
68744;SDS011;73143;45.456;11.064;2024-01-15T09:35:33;59.90;;;33.80;;
68744;SDS011;73143;45.456;11.064;2024-01-15T09:38:12;53.20;;;32.80;;
68744;SDS011;73143;45.456;11.064;2024-01-15T09:40:50;57.50;;;34.60;;
68744;SDS011;73143;45.456;11.064;2024-01-15T09:43:28;58.30;;;34.50;;
68744;SDS011;73143;45.456;11.064;2024-01-15T09:46:06;61.20;;;35.80;;
68744;SDS011;73143;45.456;11.064;2024-01-15T09:48:44;56.00;;;34.20;;
68744;SDS011;73143;45.456;11.064;2024-01-15T09:51:22;61.20;;;36.40;;
68744;SDS011;73143;45.456;11.064;2024-01-15T09:54:00;52.20;;;32.40;;
68744;SDS011;73143;45.456;11.064;2024-01-15T09:56:38;53.40;;;32.70;;
68744;SDS011;73143;45.456;11.064;2024-01-15T09:59:18;58.10;;;34.30;;
68744;SDS011;73143;45.456;11.064;2024-01-15T10:01:59;58.20;;;33.90;;
68744;SDS011;73143;45.456;11.064;2024-01-15T10:04:38;55.70;;;33.70;;
68744;SDS011;73143;45.456;11.064;2024-01-15T10:07:17;53.70;;;31.10;;
68744;SDS011;73143;45.456;11.064;2024-01-15T10:09:55;54.00;;;31.10;;
68744;SDS011;73143;45.456;11.064;2024-01-15T10:12:34;52.90;;;33.00;;
68744;SDS011;73143;45.456;11.064;2024-01-15T10:15:14;47.50;;;30.10;;
68744;SDS011;73143;45.456;11.064;2024-01-15T10:17:53;51.50;;;29.20;;
68744;SDS011;73143;45.456;11.064;2024-01-15T10:20:34;54.80;;;30.10;;
68744;SDS011;73143;45.456;11.064;2024-01-15T10:23:11;46.80;;;27.60;;
68744;SDS011;73143;45.456;11.064;2024-01-15T10:25:49;50.70;;;29.90;;
68744;SDS011;73143;45.456;11.064;2024-01-15T10:28:27;58.60;;;31.50;;
68744;SDS011;73143;45.456;11.064;2024-01-15T10:31:05;50.90;;;28.50;;
68744;SDS011;73143;45.456;11.064;2024-01-15T10:33:41;54.80;;;33.40;;
68744;SDS011;73143;45.456;11.064;2024-01-15T10:36:19;54.50;;;33.70;;
68744;SDS011;73143;45.456;11.064;2024-01-15T10:38:59;58.10;;;34.60;;
68744;SDS011;73143;45.456;11.064;2024-01-15T10:41:36;57.90;;;36.40;;
68744;SDS011;73143;45.456;11.064;2024-01-15T10:44:13;62.40;;;37.80;;
68744;SDS011;73143;45.456;11.064;2024-01-15T10:46:50;59.70;;;34.10;;
68744;SDS011;73143;45.456;11.064;2024-01-15T10:49:31;68.90;;;36.10;;
68744;SDS011;73143;45.456;11.064;2024-01-15T10:52:08;63.30;;;36.60;;
68744;SDS011;73143;45.456;11.064;2024-01-15T10:54:46;65.30;;;35.30;;
68744;SDS011;73143;45.456;11.064;2024-01-15T10:57:28;63.20;;;38.30;;
68744;SDS011;73143;45.456;11.064;2024-01-15T11:00:13;61.20;;;36.40;;
68744;SDS011;73143;45.456;11.064;2024-01-15T11:02:52;63.10;;;35.80;;
68744;SDS011;73143;45.456;11.064;2024-01-15T11:05:30;59.90;;;34.50;;
68744;SDS011;73143;45.456;11.064;2024-01-15T11:08:11;62.30;;;36.80;;
68744;SDS011;73143;45.456;11.064;2024-01-15T11:10:52;65.00;;;37.00;;
68744;SDS011;73143;45.456;11.064;2024-01-15T11:13:43;63.70;;;37.50;;
68744;SDS011;73143;45.456;11.064;2024-01-15T11:16:24;60.80;;;35.70;;
68744;SDS011;73143;45.456;11.064;2024-01-15T11:19:45;62.40;;;34.60;;
68744;SDS011;73143;45.456;11.064;2024-01-15T11:22:49;56.70;;;34.60;;
68744;SDS011;73143;45.456;11.064;2024-01-15T11:25:37;52.50;;;31.60;;
68744;SDS011;73143;45.456;11.064;2024-01-15T11:31:29;54.40;;;31.10;;
68744;SDS011;73143;45.456;11.064;2024-01-15T11:34:53;62.10;;;34.70;;
68744;SDS011;73143;45.456;11.064;2024-01-15T11:37:59;60.50;;;34.40;;
68744;SDS011;73143;45.456;11.064;2024-01-15T11:40:41;62.80;;;35.30;;
68744;SDS011;73143;45.456;11.064;2024-01-15T11:43:20;64.00;;;34.50;;
68744;SDS011;73143;45.456;11.064;2024-01-15T11:45:58;63.80;;;35.70;;
68744;SDS011;73143;45.456;11.064;2024-01-15T11:48:44;60.20;;;34.50;;
68744;SDS011;73143;45.456;11.064;2024-01-15T11:51:27;62.60;;;34.60;;
68744;SDS011;73143;45.456;11.064;2024-01-15T11:54:08;57.00;;;33.20;;
68744;SDS011;73143;45.456;11.064;2024-01-15T11:56:48;57.40;;;34.60;;
68744;SDS011;73143;45.456;11.064;2024-01-15T11:59:26;58.90;;;34.40;;
68744;SDS011;73143;45.456;11.064;2024-01-15T12:02:02;58.10;;;34.80;;
68744;SDS011;73143;45.456;11.064;2024-01-15T12:04:39;59.80;;;34.10;;
68744;SDS011;73143;45.456;11.064;2024-01-15T12:07:16;62.40;;;32.50;;
68744;SDS011;73143;45.456;11.064;2024-01-15T12:09:53;58.80;;;35.00;;
68744;SDS011;73143;45.456;11.064;2024-01-15T12:12:37;62.10;;;36.50;;
68744;SDS011;73143;45.456;11.064;2024-01-15T12:15:21;57.90;;;35.90;;
68744;SDS011;73143;45.456;11.064;2024-01-15T12:17:59;57.50;;;34.00;;
68744;SDS011;73143;45.456;11.064;2024-01-15T12:20:37;56.90;;;34.40;;
68744;SDS011;73143;45.456;11.064;2024-01-15T12:23:14;55.10;;;32.80;;
68744;SDS011;73143;45.456;11.064;2024-01-15T12:25:51;61.50;;;36.30;;
68744;SDS011;73143;45.456;11.064;2024-01-15T12:28:29;62.50;;;36.60;;
68744;SDS011;73143;45.456;11.064;2024-01-15T12:31:07;63.20;;;37.10;;
68744;SDS011;73143;45.456;11.064;2024-01-15T12:33:45;60.60;;;36.50;;
68744;SDS011;73143;45.456;11.064;2024-01-15T12:36:24;62.10;;;36.10;;
68744;SDS011;73143;45.456;11.064;2024-01-15T12:39:05;58.80;;;35.40;;
68744;SDS011;73143;45.456;11.064;2024-01-15T12:41:44;44.80;;;28.80;;
68744;SDS011;73143;45.456;11.064;2024-01-15T12:44:22;58.60;;;34.40;;
68744;SDS011;73143;45.456;11.064;2024-01-15T12:46:59;59.60;;;34.10;;
68744;SDS011;73143;45.456;11.064;2024-01-15T12:49:39;61.00;;;36.60;;
68744;SDS011;73143;45.456;11.064;2024-01-15T12:52:18;60.50;;;35.70;;
68744;SDS011;73143;45.456;11.064;2024-01-15T12:54:55;62.40;;;37.20;;
68744;SDS011;73143;45.456;11.064;2024-01-15T12:57:32;64.30;;;38.90;;
68744;SDS011;73143;45.456;11.064;2024-01-15T13:00:15;63.70;;;38.00;;
68744;SDS011;73143;45.456;11.064;2024-01-15T13:02:54;60.70;;;37.60;;
68744;SDS011;73143;45.456;11.064;2024-01-15T13:05:33;62.30;;;36.50;;
68744;SDS011;73143;45.456;11.064;2024-01-15T13:08:10;68.80;;;38.50;;
68744;SDS011;73143;45.456;11.064;2024-01-15T13:10:47;65.30;;;38.70;;
68744;SDS011;73143;45.456;11.064;2024-01-15T13:13:24;60.70;;;37.20;;
68744;SDS011;73143;45.456;11.064;2024-01-15T13:16:02;58.50;;;35.80;;
68744;SDS011;73143;45.456;11.064;2024-01-15T13:18:40;76.00;;;37.60;;
68744;SDS011;73143;45.456;11.064;2024-01-15T13:21:18;63.10;;;38.80;;
68744;SDS011;73143;45.456;11.064;2024-01-15T13:23:55;69.60;;;40.20;;
68744;SDS011;73143;45.456;11.064;2024-01-15T13:26:33;66.80;;;39.40;;
68744;SDS011;73143;45.456;11.064;2024-01-15T13:29:09;64.10;;;39.90;;
68744;SDS011;73143;45.456;11.064;2024-01-15T13:31:46;65.40;;;39.90;;
68744;SDS011;73143;45.456;11.064;2024-01-15T13:34:23;64.10;;;39.20;;
68744;SDS011;73143;45.456;11.064;2024-01-15T13:37:01;63.70;;;38.00;;
68744;SDS011;73143;45.456;11.064;2024-01-15T13:39:41;60.30;;;38.70;;
68744;SDS011;73143;45.456;11.064;2024-01-15T13:42:20;60.30;;;36.70;;
68744;SDS011;73143;45.456;11.064;2024-01-15T13:45:00;60.80;;;38.00;;
68744;SDS011;73143;45.456;11.064;2024-01-15T13:47:37;62.70;;;38.50;;
68744;SDS011;73143;45.456;11.064;2024-01-15T13:50:16;67.80;;;43.20;;
68744;SDS011;73143;45.456;11.064;2024-01-15T13:52:56;65.50;;;38.40;;
68744;SDS011;73143;45.456;11.064;2024-01-15T13:55:34;67.80;;;39.90;;
68744;SDS011;73143;45.456;11.064;2024-01-15T13:58:12;61.20;;;37.30;;
68744;SDS011;73143;45.456;11.064;2024-01-15T14:00:50;54.30;;;34.80;;
68744;SDS011;73143;45.456;11.064;2024-01-15T14:03:28;57.90;;;38.00;;
68744;SDS011;73143;45.456;11.064;2024-01-15T14:06:06;59.50;;;36.30;;
68744;SDS011;73143;45.456;11.064;2024-01-15T14:08:43;60.40;;;37.10;;
68744;SDS011;73143;45.456;11.064;2024-01-15T14:11:20;66.70;;;39.50;;
68744;SDS011;73143;45.456;11.064;2024-01-15T14:13:57;57.90;;;37.80;;
68744;SDS011;73143;45.456;11.064;2024-01-15T14:16:34;67.70;;;40.10;;
68744;SDS011;73143;45.456;11.064;2024-01-15T14:19:11;64.50;;;38.30;;
68744;SDS011;73143;45.456;11.064;2024-01-15T14:21:48;59.20;;;37.90;;
68744;SDS011;73143;45.456;11.064;2024-01-15T14:24:25;60.90;;;37.10;;
68744;SDS011;73143;45.456;11.064;2024-01-15T14:27:02;59.90;;;37.20;;
68744;SDS011;73143;45.456;11.064;2024-01-15T14:29:40;62.80;;;37.00;;
68744;SDS011;73143;45.456;11.064;2024-01-15T14:32:17;61.40;;;39.70;;
68744;SDS011;73143;45.456;11.064;2024-01-15T14:34:54;63.70;;;38.30;;
68744;SDS011;73143;45.456;11.064;2024-01-15T14:37:32;71.50;;;43.00;;
68744;SDS011;73143;45.456;11.064;2024-01-15T14:40:12;60.80;;;37.90;;
68744;SDS011;73143;45.456;11.064;2024-01-15T14:42:49;59.50;;;37.30;;
68744;SDS011;73143;45.456;11.064;2024-01-15T14:45:26;62.30;;;38.30;;
68744;SDS011;73143;45.456;11.064;2024-01-15T14:48:03;66.10;;;38.10;;
68744;SDS011;73143;45.456;11.064;2024-01-15T14:50:40;63.70;;;37.90;;
68744;SDS011;73143;45.456;11.064;2024-01-15T14:53:17;61.80;;;39.20;;
68744;SDS011;73143;45.456;11.064;2024-01-15T14:55:55;64.20;;;38.40;;
68744;SDS011;73143;45.456;11.064;2024-01-15T14:58:34;61.60;;;37.90;;
68744;SDS011;73143;45.456;11.064;2024-01-15T15:01:11;60.80;;;37.20;;
68744;SDS011;73143;45.456;11.064;2024-01-15T15:03:48;64.90;;;38.30;;
68744;SDS011;73143;45.456;11.064;2024-01-15T15:06:25;65.70;;;37.80;;
68744;SDS011;73143;45.456;11.064;2024-01-15T15:09:02;67.30;;;38.50;;
68744;SDS011;73143;45.456;11.064;2024-01-15T15:11:41;61.00;;;36.40;;
68744;SDS011;73143;45.456;11.064;2024-01-15T15:14:18;71.90;;;39.40;;
68744;SDS011;73143;45.456;11.064;2024-01-15T15:16:54;66.80;;;41.20;;
68744;SDS011;73143;45.456;11.064;2024-01-15T15:19:31;68.30;;;40.80;;